ハリファックス の空港の天気 - METARとTAF

ハリファックス国際空港 ( CYHZ / YHZ ) - カナダ ノバスコシア州ハリファックス
飛行場実況気象(Metar)
観測時間08/14 16:57 ADT (08/14 19:57 UTC)
風向・風速東 7m/s
視程10km以上
天気現象弱いしゅう雨
全天の8割程度の雲 雲底高度 760m
全天を覆う雲 雲底高度 9140m
気温20℃
湿度94%
気圧1017.7hPa
METARCYHZ 141957Z 10013KT 15SM -SHRA BKN025TCU OVC300 20/19 A3005 RMK TCU6CI2 PRESFR SLP177 DENSITY ALT 1000FT
過去の天気等 Google飛行場航空写真 Wunderground天気予報

過去48時間のMETAR

飛行場予報(TAF)
発表時間: 8/14 17:06 ADT (8/14 20:06 UTC)
予報対象時間: 14日17時 ADT ~ 15日15時 ADT
風向・風速東 6m/s
視程10km以上
天気現象弱いしゅう雨
全天の8割程度の雲 雲底高度 1520m
14日17時 ADT ~ 14日21時 ADT に一時的に
視程3220m
天気現象強いしゅう雨 もや
全天を覆う雲 鉛直視程 240m
14日17時 ADT から 確率 30% で
風向・風速不定 8m/s 瞬間風速 13m/s
視程1610m
天気現象強い雷雨 もや
全天の8割程度の積乱雲 雲底高度 1520m
14日21時 ADT から
風向・風速北東 5m/s 瞬間風速 10m/s
視程10km以上
全天の4割程度の雲 雲底高度 1520m
14日21時 ADT ~ 14日24時 ADT に一時的に
視程8050m
天気現象弱いしゅう雨 もや
全天の8割程度の雲 雲底高度 610m
15日0時 ADT から
風向・風速北東 6m/s
視程10km以上
全天の8割程度の雲 雲底高度 1220m
15日2時 ADT から
風向・風速北北東 4m/s
視程10km以上
全天の8割程度の雲 雲底高度 370m
15日11時 ADT から
風向・風速東北東 6m/s
視程10km以上
全天の8割程度の雲 雲底高度 760m
15日13時 ADT から
風向・風速東北東 6m/s
視程10km以上
天気現象弱いしゅう雨
全天の8割程度の雲 雲底高度 910m
TAF AMD CYHZ 142006Z 1420/1518 10012KT P6SM -SHRA BKN050
TEMPO 1420/1424 2SM +SHRA BR VV008
PROB30 1420/1424 VRB15G25KT 1SM +TSRA BR BKN050CB
FM150000 04010G20KT P6SM SCT050
TEMPO 1500/1503 5SM -SHRA BR BKN020
FM150300 04012KT P6SM BKN040
FM150500 03008KT P6SM BKN012
FM151400 06012KT P6SM BKN025
FM151600 07012KT P6SM -SHRA BKN030 RMK NXT FCST BY 142100Z